Latest Weather Observations for Tunnack

IDT60801

Issued at 7:35 pm EDT Saturday 1 November 2014 (issued every 30 minutes, with the page automatically refreshed every 10 minutes)

About weather observations | Map of weather stations | Latest weather observations for TAS | Other Formats
Station Details ID: 094195 Name: TUNNACK FIRE STATION Lat: -42.45 Lon: 147.46 Height: 461.5 m
Data from the previous 72 hours. | See also: Recent months at Tunnack
Date/Time
EDT
Temp
°C
App
Temp
°C
Dew
Point
Rel
Hum
%
Delta-T
°C
Wind Press
QNH
hPa
Press
MSL
hPa
Rain
since 9 am
mm
Dir
 
Spd
km/h
Gust
km/h
Spd
kts
Gust
kts
01/07:30pm 2.3 -4.0 1.6 95 0.3 W 24 41 13 22 997.9 997.6 1.2
01/07:04pm 4.6 -2.7 -0.2 71 1.9 W 28 48 15 26 997.1 996.7 0.4
01/07:00pm 5.0 -1.2 -0.6 67 2.2 W 22 43 12 23 997.0 996.6 0.4
01/06:30pm 5.4 -0.3 0.6 71 1.9 W 20 32 11 17 996.7 996.3 0.4
01/06:11pm 5.5 -3.8 0.9 72 1.9 WNW 39 57 21 31 996.5 996.1 0.4
01/06:00pm 6.5 -4.5 1.0 68 2.3 WNW 48 59 26 32 996.1 995.8 0.4
01/05:42pm 7.4 0.0 -0.8 56 3.2 W 28 50 15 27 995.7 995.4 0.4
01/05:30pm 8.1 1.9 1.9 65 2.6 W 24 41 13 22 995.6 995.3 0.4
01/05:11pm 7.1 0.1 2.0 70 2.1 W 28 50 15 27 995.3 994.9 0.4
01/05:00pm 6.4 0.3 3.0 79 1.5 W 24 39 13 21 995.1 994.7 0.4
01/04:30pm 8.0 -1.5 -1.0 53 3.6 W 39 65 21 35 994.3 993.9 0.2
01/04:00pm 9.8 0.8 0.2 51 4.0 W 37 59 20 32 993.8 993.5 0.2
01/03:30pm 10.1 1.0 2.0 57 3.5 W 39 70 21 38 994.2 993.8 0.2
01/03:00pm 9.2 -1.9 2.5 63 2.9 W 50 76 27 41 994.1 993.7 0.2
01/02:55pm 9.8 -2.7 2.2 59 3.3 WNW 57 76 31 41 993.9 993.6 0.2
01/02:30pm 10.7 2.6 3.3 60 3.3 W 35 57 19 31 993.7 993.3 0.2
01/02:00pm 9.6 1.0 4.6 71 2.3 WNW 39 59 21 32 993.6 993.2 0.2
01/01:30pm 11.2 2.0 3.5 59 3.5 WNW 41 61 22 33 993.4 993.0 0.0
01/01:03pm 12.5 4.6 4.5 58 3.7 WNW 35 56 19 30 992.9 992.5 0.0
01/01:00pm 12.7 5.1 5.8 63 3.4 WNW 35 48 19 26 992.9 992.5 0.0
01/12:33pm 12.5 3.2 5.2 61 3.5 W 43 61 23 33 992.9 992.5 0.0
01/12:30pm 13.3 2.7 5.2 58 3.9 WNW 50 61 27 33 992.7 992.3 0.0
01/12:00pm 12.8 6.3 4.5 57 3.9 W 28 46 15 25 992.8 992.4 0.0
01/11:31am 12.3 4.9 4.8 60 3.5 WNW 33 52 18 28 992.8 992.4 0.0
01/11:30am 12.4 5.1 4.4 58 3.7 WNW 32 48 17 26 992.8 992.4 0.0
01/11:00am 11.6 3.2 3.9 59 3.6 W 37 56 20 30 992.5 992.1 0.0
01/10:30am 10.9 1.6 3.0 58 3.5 WNW 41 67 22 36 992.6 992.6 0.0
01/10:00am 11.4 1.5 2.7 55 3.9 W 44 67 24 36 992.3 992.3 0.0
01/09:30am 9.9 1.1 3.4 64 2.9 W 39 59 21 32 992.0 992.0 0.0
01/09:00am 10.2 3.0 5.2 71 2.4 W 32 56 17 30 992.1 992.1 -
01/08:30am 10.0 3.7 5.8 75 2.0 W 28 48 15 26 992.2 992.2 -
01/08:12am 10.5 4.2 5.5 71 2.4 W 28 61 15 33 991.9 991.9 -
01/08:00am 10.1 4.3 6.4 78 1.8 W 26 41 14 22 992.0 992.0 -
01/07:30am 10.4 4.3 8.2 86 1.1 WNW 30 50 16 27 991.1 991.1 -
01/07:29am 10.3 4.6 8.2 87 1.0 WNW 28 50 15 27 991.1 991.1 -
01/07:00am 10.1 7.3 9.9 99 0.1 NNW 15 20 8 11 990.3 990.3 -
01/06:30am 10.0 6.7 9.7 98 0.2 NNW 17 24 9 13 990.2 990.2 -
01/06:00am 10.1 5.3 8.9 92 0.6 NNW 24 35 13 19 990.4 990.4 -
01/05:30am 10.7 6.9 9.8 94 0.5 NNW 20 33 11 18 990.9 990.9 -
01/05:00am 10.8 6.1 9.2 90 0.8 NNW 24 32 13 17 990.7 990.7 -
01/04:30am 10.6 8.5 9.7 94 0.5 W 11 17 6 9 991.4 991.5 -
01/04:00am 11.1 7.5 9.7 91 0.7 WSW 19 26 10 14 991.5 991.6 -
01/03:30am 10.9 9.0 9.2 89 0.9 NW 9 11 5 6 992.3 992.3 -
01/03:00am 10.8 9.2 8.6 86 1.1 NW 7 11 4 6 991.9 991.9 -
01/02:30am 11.1 6.6 8.7 85 1.2 N 22 35 12 19 992.1 992.1 -
01/02:00am 11.0 6.1 8.6 85 1.2 N 24 33 13 18 992.1 992.1 0.0
01/01:30am 10.8 5.2 8.7 87 1.1 N 28 37 15 20 992.6 992.6 0.0
01/01:00am 10.4 5.3 9.2 92 0.6 N 26 33 14 18 993.0 993.1 0.0
01/12:30am 10.5 5.8 9.1 91 0.7 N 24 37 13 20 993.8 993.9 0.0
01/12:00am 10.5 7.0 8.6 88 1.0 N 17 28 9 15 994.1 994.1 0.0
 
Date/Time
EDT
Temp
°C
App
Temp
°C
Dew
Point
Rel
Hum
%
Delta-T
°C
Wind Press
QNH
hPa
Press
MSL
hPa
Rain
since 9 am
mm
Dir
 
Spd
km/h
Gust
km/h
Spd
kts
Gust
kts
31/11:30pm 11.0 7.5 8.8 86 1.1 NW 17 24 9 13 995.4 995.5 0.0
31/11:00pm 10.8 6.7 8.7 87 1.1 N 20 30 11 16 995.1 995.2 0.0
31/10:30pm 11.2 7.7 8.9 86 1.2 N 17 24 9 13 995.8 995.9 0.0
31/10:00pm 11.3 8.4 9.6 89 0.9 N 15 24 8 13 996.8 996.9 0.0
31/09:30pm 10.7 8.9 9.3 91 0.7 NNE 9 15 5 8 997.2 997.3 0.0
31/09:00pm 10.9 7.9 9.2 89 0.9 NNE 15 20 8 11 997.2 997.3 0.0
31/08:30pm 11.0 7.0 9.1 88 1.0 N 20 28 11 15 997.3 997.4 0.0
31/08:00pm 11.3 5.9 9.4 88 1.0 N 28 39 15 21 997.6 997.7 0.0
31/07:30pm 11.8 5.2 9.9 88 1.0 N 35 46 19 25 997.5 997.6 0.0
31/07:00pm 12.2 5.3 10.3 88 1.0 N 37 48 20 26 997.7 997.8 0.0
31/06:30pm 12.7 5.8 10.4 86 1.2 N 37 52 20 28 998.0 998.1 0.0
31/06:04pm 13.5 6.7 10.5 82 1.6 N 37 56 20 30 998.1 998.2 0.0
31/06:00pm 13.5 6.0 10.7 83 1.5 N 41 56 22 30 998.1 998.2 0.0
31/05:30pm 13.9 6.2 10.3 79 1.9 N 41 61 22 33 998.5 998.7 0.0
31/05:04pm 14.6 7.1 11.0 79 2.0 N 41 59 22 32 999.1 999.2 0.0
31/05:00pm 14.4 6.4 10.6 78 2.1 N 43 57 23 31 999.1 999.2 0.0
31/04:30pm 15.2 9.1 10.6 74 2.5 N 33 56 18 30 999.5 999.6 0.0
31/04:29pm 15.5 9.5 10.9 74 2.5 N 33 56 18 30 999.6 999.7 0.0
31/04:00pm 16.8 11.6 11.7 72 2.9 N 30 39 16 21 1000.3 1000.4 0.0
31/03:36pm 15.7 10.3 10.9 73 2.6 N 30 48 16 26 1000.6 1000.8 0.0
31/03:30pm 15.8 11.7 11.4 75 2.4 N 24 35 13 19 1000.6 1000.8 0.0
31/03:00pm 13.6 9.9 11.5 87 1.2 N 22 33 12 18 1001.1 1001.2 0.0
31/02:30pm 14.2 8.6 10.2 77 2.1 N 30 44 16 24 1001.7 1001.8 0.0
31/02:00pm 16.1 10.0 11.7 75 2.5 N 35 54 19 29 1001.7 1001.8 0.0
31/01:30pm 14.2 8.0 10.2 77 2.1 N 33 44 18 24 1001.7 1001.8 0.0
31/01:17pm 14.8 9.0 10.8 77 2.2 N 32 50 17 27 1001.6 1001.7 0.0
31/01:00pm 13.1 6.4 9.7 80 1.8 N 35 44 19 24 1002.1 1002.2 0.0
31/12:30pm 14.0 8.8 10.4 79 1.9 N 28 41 15 22 1002.7 1002.9 0.0
31/12:00pm 12.2 5.4 9.2 82 1.6 N 35 44 19 24 1003.1 1003.3 0.0
31/11:30am 12.0 7.4 9.6 85 1.2 N 24 33 13 18 1003.6 1003.7 0.0
31/11:00am 11.6 6.5 9.3 86 1.2 N 26 33 14 18 1003.8 1003.9 0.0
31/10:30am 10.1 4.5 8.9 92 0.6 N 28 37 15 20 1004.4 1004.6 0.0
31/10:00am 9.3 3.8 9.0 98 0.2 N 28 39 15 21 1004.5 1004.7 0.0
31/09:30am 8.9 4.1 8.8 99 0.1 N 24 32 13 17 1004.7 1004.9 0.0
31/09:00am 8.5 4.3 8.4 99 0.0 N 20 28 11 15 1005.0 1005.2 1.6
31/08:30am 7.8 3.5 7.7 99 0.0 N 20 30 11 16 1005.3 1005.5 1.6
31/08:00am 7.5 3.3 7.5 100 0.0 N 19 28 10 15 1005.4 1005.6 1.6
31/07:30am 7.4 4.7 7.4 100 0.0 N 11 17 6 9 1006.1 1006.3 1.6
31/07:00am 7.1 4.0 7.1 100 0.0 N 13 20 7 11 1006.2 1006.4 1.6
31/06:30am 6.8 3.6 6.8 100 0.0 N 13 20 7 11 1006.2 1006.4 1.6
31/06:00am 6.9 3.3 6.9 100 0.0 NNE 15 19 8 10 1006.1 1006.3 1.6
31/05:30am 6.2 3.6 6.1 99 0.0 NNE 9 15 5 8 1006.0 1006.2 1.6
31/05:00am 6.9 4.1 6.8 99 0.0 N 11 15 6 8 1006.1 1006.3 1.6
31/04:30am 7.4 3.5 7.3 99 0.0 N 17 24 9 13 1006.4 1006.6 1.6
31/04:00am 7.0 4.9 6.7 98 0.1 NNE 7 13 4 7 1006.6 1006.8 1.6
31/03:30am 6.9 4.8 6.8 99 0.0 E 7 9 4 5 1006.8 1007.0 1.6
31/03:00am 6.4 4.2 6.3 99 0.0 ESE 7 7 4 4 1007.1 1007.3 1.6
31/02:30am 6.4 4.4 6.3 99 0.0 E 6 7 3 4 1007.4 1007.6 1.6
31/02:00am 5.8 3.7 5.7 99 0.0 E 6 7 3 4 1007.5 1007.7 1.6
31/01:30am 5.8 3.7 5.7 99 0.0 ENE 6 7 3 4 1007.9 1008.1 1.6
31/01:00am 5.9 3.6 5.8 99 0.0 NNE 7 13 4 7 1008.4 1008.6 1.6
31/12:30am 6.1 3.9 5.5 96 0.3 E 6 7 3 4 1008.5 1008.7 1.6
31/12:00am 7.1 6.1 5.6 90 0.7 CALM 0 6 0 3 1008.7 1008.9 1.6
 
Date/Time
EDT
Temp
°C
App
Temp
°C
Dew
Point
Rel
Hum
%
Delta-T
°C
Wind Press
QNH
hPa
Press
MSL
hPa
Rain
since 9 am
mm
Dir
 
Spd
km/h
Gust
km/h
Spd
kts
Gust
kts
30/11:30pm 7.9 5.2 5.7 86 1.0 NW 9 11 5 6 1008.9 1009.1 1.6
30/11:00pm 8.2 6.2 6.2 87 0.9 NW 6 9 3 5 1009.2 1009.4 1.6
30/10:30pm 8.6 6.7 6.7 88 0.9 NW 6 7 3 4 1009.3 1009.5 1.6
30/10:00pm 8.7 5.9 6.8 88 0.9 WNW 11 13 6 7 1009.3 1009.5 1.6
30/09:30pm 9.0 6.0 6.1 82 1.4 W 11 15 6 8 1009.2 1009.4 1.6
30/09:00pm 9.0 6.0 6.1 82 1.4 WNW 11 15 6 8 1009.3 1009.5 1.6
30/08:30pm 9.8 6.1 6.2 78 1.7 WNW 15 20 8 11 1009.3 1009.5 1.6
30/08:00pm 10.1 6.4 6.4 78 1.8 WNW 15 22 8 12 1009.0 1009.2 1.6
30/07:30pm 9.6 7.5 8.4 92 0.6 SSW 9 9 5 5 1008.9 1009.1 1.6
30/07:00pm 9.6 4.5 7.5 87 1.0 SW 24 35 13 19 1008.9 1009.1 1.6
30/06:30pm 11.2 7.3 7.3 77 1.9 WNW 17 20 9 11 1008.2 1008.4 1.6
30/06:00pm 11.7 8.9 7.0 73 2.3 SW 11 19 6 10 1008.1 1008.3 1.6
30/05:30pm 11.8 9.4 7.1 73 2.3 SW 9 13 5 7 1008.0 1008.2 1.6
30/05:00pm 12.1 8.7 7.8 75 2.2 WSW 15 20 8 11 1008.0 1008.2 1.6
30/04:30pm 12.5 8.8 8.0 74 2.3 W 17 28 9 15 1007.9 1008.1 1.6
30/04:00pm 11.0 7.5 8.9 87 1.1 SSW 17 22 9 12 1007.9 1008.1 1.6
30/03:30pm 11.5 9.0 9.8 89 0.9 W 13 26 7 14 1007.7 1008.0 1.6
30/03:00pm 10.9 8.0 9.8 93 0.6 WSW 15 22 8 12 1007.6 1007.8 1.4
30/02:30pm 11.9 9.1 8.7 81 1.6 SSW 13 26 7 14 1007.5 1007.7 0.0
30/02:00pm 13.4 8.8 8.3 71 2.6 WNW 22 32 12 17 1007.1 1007.3 0.0
30/01:30pm 13.0 8.3 9.1 77 2.0 WNW 24 33 13 18 1007.1 1007.3 0.0
30/01:00pm 13.4 9.7 9.5 77 2.0 W 19 28 10 15 1007.3 1007.5 0.0
30/12:45pm 11.7 6.1 8.7 82 1.5 W 28 46 15 25 1007.5 1007.7 0.0
30/12:30pm 14.0 8.3 6.8 62 3.6 WNW 26 37 14 20 1007.0 1007.2 0.0
30/12:00pm 14.7 9.0 8.2 65 3.4 WNW 28 41 15 22 1007.2 1007.4 0.0
30/11:30am 12.9 6.5 7.1 68 2.9 WNW 30 46 16 25 1007.6 1007.8 0.0
30/11:28am 12.3 6.1 6.1 66 3.0 WNW 28 46 15 25 1007.6 1007.8 0.0
30/11:00am 11.9 6.1 6.2 68 2.8 WNW 26 44 14 24 1007.9 1008.1 0.0
30/10:30am 11.3 5.6 6.8 74 2.2 NW 26 33 14 18 1007.9 1008.1 0.0
30/10:00am 11.7 5.5 6.2 69 2.7 WNW 28 41 15 22 1007.9 1008.1 0.0
30/09:30am 11.4 6.4 6.5 72 2.4 WNW 22 33 12 18 1007.9 1008.1 0.0
30/09:00am 11.5 5.5 7.0 74 2.2 NW 28 39 15 21 1007.9 1008.1 0.0
30/08:30am 10.5 5.6 6.8 78 1.8 WNW 22 30 12 16 1007.9 1008.1 0.0
30/08:00am 9.8 5.4 6.5 80 1.6 WNW 19 24 10 13 1007.9 1008.1 0.0
30/07:30am 9.5 5.0 6.2 80 1.6 WNW 19 30 10 16 1007.6 1007.8 0.0
30/07:00am 9.2 6.9 5.8 79 1.6 NW 7 11 4 6 1007.4 1007.6 0.0
30/06:30am 8.8 4.9 5.4 79 1.6 NW 15 20 8 11 1007.0 1007.2 0.0
30/06:00am 8.4 6.2 5.3 81 1.4 NW 6 11 3 6 1006.9 1007.1 0.0
30/05:30am 7.3 5.4 4.8 84 1.1 ENE 4 7 2 4 1006.8 1007.0 0.0
30/05:00am 7.0 4.7 4.7 85 1.0 NW 6 9 3 5 1006.8 1007.0 0.0
30/04:30am 6.9 4.3 4.4 84 1.1 W 7 13 4 7 1006.8 1007.0 0.0
30/04:00am 7.7 4.1 5.2 84 1.1 WNW 13 24 7 13 1006.9 1007.1 0.0
30/03:30am 7.7 3.7 4.8 82 1.3 WNW 15 19 8 10 1007.0 1007.2 0.0
30/03:00am 8.4 3.7 5.3 81 1.4 WNW 19 26 10 14 1007.0 1007.2 0.0
30/02:30am 9.0 3.4 5.6 79 1.6 WNW 24 35 13 19 1007.0 1007.2 0.0
30/02:00am 9.0 4.2 5.4 78 1.7 W 20 32 11 17 1007.3 1007.5 0.0
30/01:30am 8.6 4.4 5.5 81 1.4 WNW 17 24 9 13 1007.2 1007.4 0.0
30/01:00am 8.6 3.9 5.2 79 1.6 NW 19 24 10 13 1007.4 1007.6 0.0
30/12:30am 9.5 4.3 5.5 76 1.9 WNW 22 28 12 15 1007.9 1008.1 0.0
30/12:00am 8.9 4.7 5.8 81 1.5 WNW 17 20 9 11 1007.9 1008.1 0.0
 
Date/Time
EDT
Temp
°C
App
Temp
°C
Dew
Point
Rel
Hum
%
Delta-T
°C
Wind Press
QNH
hPa
Press
MSL
hPa
Rain
since 9 am
mm
Dir
 
Spd
km/h
Gust
km/h
Spd
kts
Gust
kts
29/11:30pm 9.0 3.1 5.6 79 1.6 WNW 26 35 14 19 1007.7 1008.0 0.0
29/11:00pm 10.0 4.0 5.4 73 2.2 W 26 43 14 23 1007.9 1008.1 0.0
29/10:30pm 9.3 3.7 5.5 77 1.8 WNW 24 41 13 22 1008.0 1008.2 0.0
29/10:00pm 10.2 4.2 5.4 72 2.3 WNW 26 41 14 22 1008.0 1008.2 0.0
29/09:30pm 9.5 3.8 5.1 74 2.0 WNW 24 32 13 17 1008.0 1008.2 0.0
29/09:00pm 10.0 4.0 5.2 72 2.2 WNW 26 44 14 24 1007.5 1007.7 0.0
29/08:30pm 11.0 2.1 5.3 68 2.7 W 41 67 22 36 1007.0 1007.2 0.0
29/08:00pm 11.4 3.4 5.5 67 2.8 W 37 59 20 32 1006.9 1007.1 0.0

Other Formats:

Comma delimited format used in spreadsheet applications
http://www.bom.gov.au/fwo/IDT60801/IDT60801.94960.axf

JavaScript Object Notation format (JSON) in row-major order
http://www.bom.gov.au/fwo/IDT60801/IDT60801.94960.json